Flight Track Log - Related Links

Times and Time Zones

All times are in EDT time to prevent confusion due to time zone crossing. See the N559LC flight status page for this flight to view local times or setup timezone preferences in your user account.

Time Position Orientation Groundspeed Altitude Reporting Facility
EDT Latitude Longitude Course Direction KTS MPH feet Rate Location/Type
Sat 04:10:51 PM 42.1925 -83.3539 176° South 179 206 1,700  Level Cleveland Center
Sat 04:11:58 PM 42.1217 -83.3467 176° South 265 305 5,000 2,958 Climbing Cleveland Center
Sat 04:12:02 PM 42.1192 -83.3436 138° Southeast 236 272 5,200 3,545 Climbing Cleveland Center
Sat 04:13:04 PM 42.0656 -83.2878 142° Southeast 327 376 8,900 2,625 Climbing Cleveland Center
Sat 04:13:54 PM 42.0714 -83.1850 86° East 324 373 10,100 1,065 Climbing Cleveland Center
Sat 04:14:06 PM 42.0789 -83.1658 62° Northeast 333 383 10,000 871 Descending Cleveland Center
Sat 04:14:56 PM 42.1200 -83.0708 60° Northeast 366 421 11,000 1,258 Climbing Cleveland Center
Sat 04:15:08 PM 42.1267 -83.0497 67° East 356 410 11,300 1,622 Climbing Cleveland Center
Sat 04:16:10 PM 42.1764 -82.9272 61° Northeast 373 429 13,000 1,790 Climbing Cleveland Center
Sat 04:17:12 PM 42.2286 -82.7986 61° Northeast 391 450 15,000 2,341 Climbing Cleveland Center
Sat 04:18:13 PM 42.2831 -82.6636 61° Northeast 410 472 17,800 2,829 Climbing Cleveland Center
Sat 04:19:15 PM 42.3406 -82.5133 63° Northeast 431 496 20,800 2,758 Climbing Cleveland Center
Sat 04:20:17 PM 42.3647 -82.3175 80° East 461 531 23,500 2,371 Climbing Cleveland Center
Sat 04:21:19 PM 42.3553 -82.1461 94° East 457 526 25,700 1,790 Climbing Cleveland Center
Sat 04:22:21 PM 42.3475 -81.9575 93° East 478 550 27,200 1,452 Climbing Cleveland Center
Sat 04:23:23 PM 42.3378 -81.7633 94° East 504 580 28,700 1,452 Climbing Cleveland Center
Sat 04:24:25 PM 42.3292 -81.5656 93° East 518 596 30,200 1,597 Climbing Cleveland Center
Sat 04:25:27 PM 42.3189 -81.3656 94° East 526 605 32,000 1,403 Climbing Cleveland Center
Sat 04:26:29 PM 42.3089 -81.1658 94° East 527 606 33,100 1,171 Climbing Cleveland Center
Sat 04:27:30 PM 42.2981 -80.9564 94° East 534 615 34,400 1,317 Climbing Cleveland Center
Sat 04:28:32 PM 42.2883 -80.7614 94° East 532 612 35,800 1,306 Climbing Cleveland Center
Sat 04:29:34 PM 42.2778 -80.5361 94° East 512 589 37,100 919 Climbing Cleveland Center
Sat 04:30:36 PM 42.2769 -80.3383 90° East 521 600 37,700 585 Climbing Cleveland Center
Sat 04:31:37 PM 42.2978 -80.1356 82° East 542 624 38,300 488 Climbing Cleveland Center
Sat 04:32:39 PM 42.3161 -79.9419 83° East 548 631 38,700 339 Climbing Cleveland Center
Sat 04:33:41 PM 42.3369 -79.7375 82° East 550 633 39,000 146 Climbing Cleveland Center
Sat 04:34:42 PM 42.3564 -79.5272 83° East 562 647 39,000  Level Cleveland Center
Sat 04:35:44 PM 42.3806 -79.2683 83° East 577 664 39,000  Level Cleveland Center
Sat 04:36:46 PM 42.3997 -79.0522 83° East 581 669 39,000  Level Cleveland Center
Sat 04:37:47 PM 42.4200 -78.8281 83° East 581 669 39,000  Level Cleveland Center
Sat 04:38:49 PM 42.4383 -78.6122 83° East 580 667 39,000  Level Cleveland Center
Sat 04:39:50 PM 42.4561 -78.3964 84° East 579 666 39,000  Level Cleveland Center
Sat 04:40:52 PM 42.4739 -78.1831 83° East 575 662 39,000  Level Cleveland Center
Sat 04:41:53 PM 42.4911 -77.9708 84° East 572 658 39,000  Level Cleveland Center
Sat 04:42:55 PM 42.5094 -77.7364 84° East 571 657 39,000  Level Cleveland Center
Sat 04:43:57 PM 42.5261 -77.5236 84° East 570 656 39,000  Level Cleveland Center
Sat 04:44:58 PM 42.5431 -77.3044 84° East 568 654 39,000  Level Cleveland Center
Sat 04:46:00 PM 42.5583 -77.0936 84° East 568 654 39,000  Level Cleveland Center
Sat 04:47:01 PM 42.5733 -76.8847 84° East 561 646 39,000  Level Cleveland Center
Sat 04:47:52 PM 42.5850 -76.7072 85° East 563 648 39,000  Level Boston Center
Sat 04:48:50 PM 42.6011 -76.4967 84° East 558 642 39,000  Level Boston Center
Sat 04:49:51 PM 42.6147 -76.2858 85° East 558 642 39,000  Level Boston Center
Sat 04:50:51 PM 42.6306 -76.0497 85° East 557 641 39,000  Level Boston Center
Sat 04:51:50 PM 42.6433 -75.8389 85° East 562 647 39,000 -504 Level Boston Center
Sat 04:52:50 PM 42.6539 -75.6247 86° East 562 647 38,000 -976 Descending Boston Center
Sat 04:53:53 PM 42.6658 -75.4108 86° East 562 647 37,000 -500 Descending Boston Center
Sat 04:54:50 PM 42.6797 -75.1967 85° East 573 659 37,000  Level Boston Center
Sat 04:55:50 PM 42.6908 -74.9825 86° East 573 659 37,000  Level Boston Center
Sat 04:56:51 PM 42.7017 -74.7653 86° East 573 659 37,000  Level Boston Center
Sat 04:57:52 PM 42.7144 -74.5481 85° East 573 659 37,000  Level Boston Center
Sat 04:58:52 PM 42.7222 -74.3336 87° East 573 659 37,000  Level Boston Center
Sat 04:59:50 PM 42.7319 -74.1133 86° East 573 659 37,000  Level Boston Center
Sat 05:00:50 PM 42.7411 -73.9017 87° East 567 652 37,000  Level Boston Center
Sat 05:01:51 PM 42.7394 -73.6925 91° East 561 646 37,000  Level Boston Center
Sat 05:02:51 PM 42.7167 -73.4828 98° East 556 640 37,000 -843 Level Boston Center
Sat 05:03:52 PM 42.6933 -73.2706 98° East 561 646 35,300 -2,319 Descending Boston Center
Sat 05:04:50 PM 42.6697 -73.0586 99° East 566 651 32,400 -2,550 Descending Boston Center
Sat 05:05:52 PM 42.6497 -72.8692 98° East 573 659 30,200 -2,500 Descending Boston Center
Sat 05:06:50 PM 42.6231 -72.6658 100° East 559 643 27,400 -3,000 Descending Boston Center
Sat 05:07:50 PM 42.5983 -72.4739 100° East 533 613 24,300 -2,926 Descending Boston Center
Sat 05:08:51 PM 42.5753 -72.2878 99° East 518 596 21,500 -2,852 Descending Boston Center
Sat 05:09:52 PM 42.5519 -72.0992 99° East 478 550 18,500 -2,678 Descending Boston Center
Sat 05:10:52 PM 42.5347 -71.9331 98° East 456 525 16,100 -2,542 Descending Boston Center
Sat 05:11:50 PM 42.5214 -71.7753 96° East 432 497 13,500 -2,390 Descending Boston Center
Sat 05:12:50 PM 42.5081 -71.6289 97° East 403 464 11,400 -1,648 Descending Boston Center
Sat 05:13:21 PM 42.5000 -71.5500 98° East 368 423 11,000 -1,187 Descending KA90
Sat 05:14:21 PM 42.4833 -71.4333 101° East 326 375 9,600 -1,000 Descending KA90
Sat 05:15:21 PM 42.4833 -71.3167 90° East 305 351 9,000 -316 Descending KA90
Sat 05:16:15 PM 42.4667 -71.2167 103° East 280 322 9,000 -1,000 Level KA90
Sat 05:17:09 PM 42.4667 -71.1333 90° East 275 316 7,200 -1,474 Descending KA90
Sat 05:18:09 PM 42.4500 -71.0333 103° East 252 290 6,200 -1,048 Descending KA90
Sat 05:19:15 PM 42.4500 -70.9333 90° East 241 277 5,000 -1,136 Descending KA90
Sat 05:20:21 PM 42.4667 -70.8333 77° East 237 273 3,700 -1,113 Descending KA90
Sat 05:20:52 PM 42.4492 -70.8025 128° Southeast 225 259 3,200 -527 Descending Boston Center
Sat 05:21:52 PM 42.4031 -70.7953 173° South 135 155 2,900 -559 Descending Boston Center
Sat 05:22:50 PM 42.3872 -70.8492 248° West 129 148 2,100 -944 Descending Boston Center
Sat 05:23:21 PM 42.3833 -70.8833 261° West 169 194 1,500 -837 Descending KA90
Sat 05:24:16 PM 42.3667 -70.9333 246° West 146 168 900 14,106 Descending KA90
Sat 05:25:52 PM 42.3542 -71.0242 259° West 160 184 37,000 22,563 Climbing Boston Center
Sat 05:27:00 PM 42.3500 -71.0000 North  Level FlightAware Approximate

Login

Don't have an account? Register now (free) for customized features, flight alerts, and more!